Overview Statistics Trail Chart Weather Telemetry Raw packets
 

This is the latest recevied weather packets stored in our database for station/object PA3FNT-13. If no packets are shown the sender has not sent any weather packets the latest 10 day(s).

<< 11 12 13 14 15 16 17 >>
Time Temp. Humidity Pressure Rain* Wind** Luminosity Snow
1788219193 26.67° C 44% 1015.8 hPa - - - -
1788218293 26.67° C 45% 1015.6 hPa - - - -
1788217392 26.67° C 44% 1015.7 hPa - - - -
1788216492 26.67° C 44% 1015.7 hPa - - - -
1788215592 27.22° C 43% 1015.7 hPa - - - -
1788214692 28.33° C 42% 1015.6 hPa - - - -
1788213792 27.78° C 42% 1015.5 hPa - - - -
1788212892 27.78° C 42% 1015.5 hPa - - - -
1788211991 29.44° C 40% 1015.5 hPa - - - -
1788211091 27.22° C 43% 1015.2 hPa - - - -
1788210191 27.78° C 42% 1015.1 hPa - - - -
1788209291 28.89° C 40% 1014.9 hPa - - - -
1788208391 28.89° C 40% 1014.8 hPa - - - -
1788207491 28.33° C 40% 1014.8 hPa - - - -
1788206590 29.44° C 39% 1014.6 hPa - - - -
1788205690 28.89° C 40% 1014.3 hPa - - - -
1788204790 28.33° C 42% 1014.1 hPa - - - -
1788203890 27.22° C 43% 1013.9 hPa - - - -
1788202990 27.22° C 42% 1013.7 hPa - - - -
1788202089 28.33° C 41% 1013.5 hPa - - - -
1788201189 28.33° C 40% 1013.2 hPa - - - -
1788200289 28.89° C 40% 1012.9 hPa - - - -
1788199389 29.44° C 38% 1012.7 hPa - - - -
1788198489 29.44° C 39% 1012.4 hPa - - - -
1788197589 30° C 39% 1012.1 hPa - - - -

* Rain since midnight (hover to see other rain measurements)
** Current wind speed in m/s (hover to see current wind gust speed)